Dirección General De Aeronáutica Civil

Dirección Meteorológica de Chile - Servicios Climáticos

Informe General de Control de Calidad de la Estación

Listado de niveles de control de calidad para algunos parámetros
Estación Llay Llay (320095)
Fecha de Revisión de los datos :

Elementos

Registros Niveles de Control Total
Nivel 0 Nivel 1 Nivel 2 Nivel 3 Errores Porcentaje
01 Temperatura del Aire Seco 113.010 0 . 178 0.16 % 0 . 0 . 178 0.16 %
02 Temperatura de Rocío 113.019 0 . 0 . 0 . 0 . 0 0.00 %
03 Humedad Relativa del Aire 113.036 0 . 0 . 0 . 0 . 0 0.00 %
04 Temperatura Máxima PM 568 0 . 0 . 0 . 0 . 0 0.00 %
05 Temperatura Mínima AM 545 0 . 0 . 0 . 0 . 0 0.00 %
06 Agua Caida, Acumulada 6 Horas 21.376 0 . 0 . 0 . 0 . 0 0.00 %
07 Presión Atm. a Nivel de Estación (QFE) 112.220 0 . 0 . 0 . 0 . 0 0.00 %
08 Presión Atm. a Nivel Medio del Mar (QFF) 13.530 0 . 0 . 0 . 0 . 0 0.00 %
09 Presión Atm. Estándar OACI (QNH) 13.530 0 . 0 . 0 . 0 . 0 0.00 %

Totales

500.834 . 0.0000 % . 0.0355 % . 0.0000 % . 0.0000 % 178 0.0355 %

Detalle de Errores Encontrados

Nivel Fecha del Dato Descripción Información Error Fecha Ingreso
1 2016-04-06 11:00:00 Ts debe ser mayor o igual a Td Ts=7.1 - Td=7.2 2023-10-24 17:56:00
1 2016-04-16 13:00:00 Ts debe ser mayor o igual a Td Ts=16.6 - Td=16.7 2023-10-24 17:57:00
1 2016-04-17 04:00:00 Ts debe ser mayor o igual a Td Ts=16.7 - Td=16.8 2023-10-24 17:57:00
1 2016-04-17 14:00:00 Ts debe ser mayor o igual a Td Ts=13.7 - Td=13.8 2023-10-24 17:57:00
1 2016-04-17 15:00:00 Ts debe ser mayor o igual a Td Ts=13.7 - Td=13.8 2023-10-24 17:57:00
1 2016-04-18 00:00:00 Ts debe ser mayor o igual a Td Ts=13.3 - Td=13.4 2023-10-24 17:57:00
1 2016-04-18 02:00:00 Ts debe ser mayor o igual a Td Ts=12.9 - Td=13.0 2023-10-24 17:57:00
1 2016-04-18 03:00:00 Ts debe ser mayor o igual a Td Ts=12.5 - Td=12.6 2023-10-24 17:57:00
1 2016-04-18 11:00:00 Ts debe ser mayor o igual a Td Ts=11.7 - Td=11.8 2023-10-24 17:57:00
1 2016-04-19 08:00:00 Ts debe ser mayor o igual a Td Ts=10.5 - Td=10.6 2023-10-24 17:57:00
1 2016-04-20 12:00:00 Ts debe ser mayor o igual a Td Ts=6.9 - Td=7.0 2023-10-24 17:57:00
1 2016-05-06 12:00:00 Ts debe ser mayor o igual a Td Ts=7.3 - Td=7.4 2023-10-24 17:57:00
1 2016-05-09 12:00:00 Ts debe ser mayor o igual a Td Ts=7.4 - Td=7.5 2023-10-24 17:57:00
1 2016-05-12 07:00:00 Ts debe ser mayor o igual a Td Ts=5.7 - Td=5.8 2023-10-24 17:57:00
1 2016-05-15 08:00:00 Ts debe ser mayor o igual a Td Ts=7.2 - Td=7.3 2023-10-24 17:57:00
1 2016-05-31 11:00:00 Ts debe ser mayor o igual a Td Ts=8.6 - Td=8.7 2023-10-24 17:57:00
1 2016-06-03 02:00:00 Ts debe ser mayor o igual a Td Ts=9.4 - Td=9.5 2023-10-24 17:57:00
1 2016-06-03 03:00:00 Ts debe ser mayor o igual a Td Ts=9.4 - Td=9.5 2023-10-24 17:57:00
1 2016-06-03 05:00:00 Ts debe ser mayor o igual a Td Ts=9.4 - Td=9.5 2023-10-24 17:57:00
1 2016-06-03 09:00:00 Ts debe ser mayor o igual a Td Ts=9.2 - Td=9.3 2023-10-24 17:57:00
1 2016-06-03 10:00:00 Ts debe ser mayor o igual a Td Ts=9.2 - Td=9.3 2023-10-24 17:57:00
1 2016-06-04 00:00:00 Ts debe ser mayor o igual a Td Ts=8.8 - Td=8.9 2023-10-24 17:57:00
1 2016-06-04 01:00:00 Ts debe ser mayor o igual a Td Ts=8.9 - Td=9.0 2023-10-24 17:57:00
1 2016-06-04 03:00:00 Ts debe ser mayor o igual a Td Ts=8.9 - Td=9.0 2023-10-24 17:57:00
1 2016-06-04 05:00:00 Ts debe ser mayor o igual a Td Ts=9.0 - Td=9.1 2023-10-24 17:57:00
1 2016-06-04 09:00:00 Ts debe ser mayor o igual a Td Ts=8.1 - Td=8.2 2023-10-24 17:57:00
1 2016-07-12 13:00:00 Ts debe ser mayor o igual a Td Ts=6.9 - Td=7.0 2023-10-24 17:58:00
1 2016-07-14 03:00:00 Ts debe ser mayor o igual a Td Ts=7.1 - Td=7.2 2023-10-24 17:58:00
1 2016-07-20 13:00:00 Ts debe ser mayor o igual a Td Ts=6.9 - Td=7.0 2023-10-24 17:58:00
1 2016-07-25 11:00:00 Ts debe ser mayor o igual a Td Ts=8.5 - Td=8.6 2023-10-24 17:58:00
1 2016-07-25 14:00:00 Ts debe ser mayor o igual a Td Ts=9.2 - Td=9.3 2023-10-24 17:58:00
1 2016-07-29 13:00:00 Ts debe ser mayor o igual a Td Ts=5.7 - Td=5.8 2023-10-24 17:58:00
1 2017-01-06 12:00:00 Ts debe ser mayor o igual a Td Ts=0.0 - Td=11.1 2023-10-24 18:01:00
1 2017-01-06 13:00:00 Ts debe ser mayor o igual a Td Ts=0.0 - Td=12.6 2023-10-24 18:01:00
1 2017-01-06 14:00:00 Ts debe ser mayor o igual a Td Ts=0.0 - Td=12.8 2023-10-24 18:01:00
1 2017-01-06 15:00:00 Ts debe ser mayor o igual a Td Ts=0.0 - Td=13.0 2023-10-24 18:01:00
1 2017-01-06 16:00:00 Ts debe ser mayor o igual a Td Ts=0.0 - Td=12.9 2023-10-24 18:01:00
1 2017-01-06 17:00:00 Ts debe ser mayor o igual a Td Ts=0.0 - Td=11.3 2023-10-24 18:01:00
1 2017-01-06 18:00:00 Ts debe ser mayor o igual a Td Ts=0.0 - Td=11.7 2023-10-24 18:01:00
1 2017-01-06 19:00:00 Ts debe ser mayor o igual a Td Ts=0.0 - Td=12.4 2023-10-24 18:01:00
1 2017-01-06 20:00:00 Ts debe ser mayor o igual a Td Ts=0.0 - Td=11.7 2023-10-24 18:01:00
1 2017-01-06 21:00:00 Ts debe ser mayor o igual a Td Ts=0.0 - Td=12.1 2023-10-24 18:01:00
1 2017-01-06 22:00:00 Ts debe ser mayor o igual a Td Ts=0.0 - Td=11.6 2023-10-24 18:01:00
1 2017-01-06 23:00:00 Ts debe ser mayor o igual a Td Ts=0.0 - Td=11.4 2023-10-24 18:01:00
1 2017-01-07 00:00:00 Ts debe ser mayor o igual a Td Ts=0.0 - Td=11.4 2023-10-24 18:02:00
1 2017-01-07 01:00:00 Ts debe ser mayor o igual a Td Ts=0.0 - Td=11.4 2023-10-24 18:02:00
1 2017-01-07 02:00:00 Ts debe ser mayor o igual a Td Ts=0.0 - Td=11.1 2023-10-24 18:02:00
1 2017-01-07 03:00:00 Ts debe ser mayor o igual a Td Ts=0.0 - Td=10.9 2023-10-24 18:02:00
1 2017-01-07 04:00:00 Ts debe ser mayor o igual a Td Ts=0.0 - Td=10.8 2023-10-24 18:02:00
1 2017-01-07 05:00:00 Ts debe ser mayor o igual a Td Ts=0.0 - Td=10.1 2023-10-24 18:02:00
1 2017-01-07 06:00:00 Ts debe ser mayor o igual a Td Ts=0.0 - Td=10.0 2023-10-24 18:02:00
1 2017-01-07 07:00:00 Ts debe ser mayor o igual a Td Ts=0.0 - Td=9.7 2023-10-24 18:02:00
1 2017-01-07 08:00:00 Ts debe ser mayor o igual a Td Ts=0.0 - Td=9.4 2023-10-24 18:02:00
1 2017-01-07 09:00:00 Ts debe ser mayor o igual a Td Ts=0.0 - Td=9.0 2023-10-24 18:02:00
1 2017-01-07 10:00:00 Ts debe ser mayor o igual a Td Ts=0.0 - Td=9.3 2023-10-24 18:02:00
1 2017-01-07 11:00:00 Ts debe ser mayor o igual a Td Ts=0.0 - Td=12.1 2023-10-24 18:02:00
1 2017-01-07 12:00:00 Ts debe ser mayor o igual a Td Ts=0.0 - Td=12.9 2023-10-24 18:02:00
1 2017-01-07 13:00:00 Ts debe ser mayor o igual a Td Ts=0.0 - Td=14.2 2023-10-24 18:02:00
1 2017-01-07 23:00:00 Ts debe ser mayor o igual a Td Ts=0.0 - Td=11.0 2023-10-24 18:02:00
1 2017-01-08 00:00:00 Ts debe ser mayor o igual a Td Ts=0.0 - Td=10.2 2023-10-24 18:02:00
1 2017-01-08 01:00:00 Ts debe ser mayor o igual a Td Ts=0.0 - Td=10.3 2023-10-24 18:02:00
1 2017-01-08 02:00:00 Ts debe ser mayor o igual a Td Ts=0.0 - Td=10.0 2023-10-24 18:02:00
1 2017-01-08 03:00:00 Ts debe ser mayor o igual a Td Ts=0.0 - Td=9.8 2023-10-24 18:02:00
1 2017-01-08 04:00:00 Ts debe ser mayor o igual a Td Ts=0.0 - Td=10.0 2023-10-24 18:02:00
1 2017-01-08 05:00:00 Ts debe ser mayor o igual a Td Ts=0.0 - Td=9.8 2023-10-24 18:02:00
1 2017-01-08 06:00:00 Ts debe ser mayor o igual a Td Ts=0.0 - Td=9.4 2023-10-24 18:02:00
1 2017-01-08 07:00:00 Ts debe ser mayor o igual a Td Ts=0.0 - Td=9.6 2023-10-24 18:02:00
1 2017-01-08 08:00:00 Ts debe ser mayor o igual a Td Ts=0.0 - Td=9.6 2023-10-24 18:02:00
1 2017-05-09 12:00:00 Ts debe ser mayor o igual a Td Ts=8.5 - Td=8.6 2023-10-24 18:04:00
1 2017-05-11 23:00:00 Ts debe ser mayor o igual a Td Ts=10.6 - Td=10.7 2023-10-24 18:04:00
1 2017-05-13 07:00:00 Ts debe ser mayor o igual a Td Ts=10.6 - Td=10.7 2023-10-24 18:04:00
1 2017-05-14 13:00:00 Ts debe ser mayor o igual a Td Ts=10.6 - Td=10.7 2023-10-24 18:04:00
1 2017-05-24 14:00:00 Ts debe ser mayor o igual a Td Ts=9.2 - Td=9.3 2023-10-24 18:04:00
1 2017-05-25 11:00:00 Ts debe ser mayor o igual a Td Ts=8.8 - Td=8.9 2023-10-24 18:04:00
1 2017-05-25 15:00:00 Ts debe ser mayor o igual a Td Ts=11.5 - Td=11.6 2023-10-24 18:04:00
1 2017-05-26 14:00:00 Ts debe ser mayor o igual a Td Ts=9.1 - Td=9.2 2023-10-24 18:04:00
1 2017-05-29 13:00:00 Ts debe ser mayor o igual a Td Ts=8.5 - Td=8.6 2023-10-24 18:04:00
1 2017-06-17 14:00:00 Ts debe ser mayor o igual a Td Ts=9.4 - Td=9.5 2023-10-24 18:04:00
1 2017-06-23 06:00:00 Ts debe ser mayor o igual a Td Ts=9.0 - Td=9.1 2023-10-24 18:04:00
1 2017-06-24 13:00:00 Ts debe ser mayor o igual a Td Ts=8.2 - Td=8.3 2023-10-24 18:04:00
1 2017-06-24 14:00:00 Ts debe ser mayor o igual a Td Ts=9.4 - Td=9.5 2023-10-24 18:04:00
1 2017-06-25 05:00:00 Ts debe ser mayor o igual a Td Ts=7.6 - Td=7.7 2023-10-24 18:04:00
1 2017-06-25 13:00:00 Ts debe ser mayor o igual a Td Ts=9.2 - Td=9.3 2023-10-24 18:04:00
1 2017-06-27 03:00:00 Ts debe ser mayor o igual a Td Ts=8.5 - Td=8.6 2023-10-24 18:04:00
1 2017-06-27 04:00:00 Ts debe ser mayor o igual a Td Ts=8.1 - Td=8.2 2023-10-24 18:04:00
1 2017-06-27 07:00:00 Ts debe ser mayor o igual a Td Ts=8.3 - Td=8.4 2023-10-24 18:04:00
1 2017-06-27 13:00:00 Ts debe ser mayor o igual a Td Ts=7.3 - Td=7.4 2023-10-24 18:04:00
1 2017-07-14 14:00:00 Ts debe ser mayor o igual a Td Ts=8.4 - Td=8.5 2023-10-24 18:05:00
1 2018-05-30 13:00:00 Ts debe ser mayor o igual a Td Ts=10.7 - Td=10.8 2023-10-24 18:10:00
1 2018-07-02 03:00:00 Ts debe ser mayor o igual a Td Ts=7.3 - Td=7.4 2023-10-24 18:11:00
1 2018-07-05 13:00:00 Ts debe ser mayor o igual a Td Ts=8.6 - Td=8.7 2023-10-24 18:11:00
1 2019-04-25 10:00:00 Ts debe ser mayor o igual a Td Ts=7.8 - Td=7.9 2023-10-24 18:16:00
1 2019-04-25 11:00:00 Ts debe ser mayor o igual a Td Ts=8.4 - Td=8.5 2023-10-24 18:16:00
1 2019-06-14 12:00:00 Ts debe ser mayor o igual a Td Ts=4.8 - Td=4.9 2023-10-24 18:17:00
1 2019-06-14 15:00:00 Ts debe ser mayor o igual a Td Ts=7.3 - Td=7.4 2023-10-24 18:17:00
1 2019-10-02 11:00:00 Ts debe ser mayor o igual a Td Ts=0.9 - Td=1.0 2023-10-24 18:19:00
1 2019-10-02 12:00:00 Ts debe ser mayor o igual a Td Ts=1.7 - Td=4.6 2023-10-24 18:19:00
1 2019-10-03 11:00:00 Ts debe ser mayor o igual a Td Ts=1.0 - Td=1.2 2023-10-24 18:19:00
1 2019-10-03 12:00:00 Ts debe ser mayor o igual a Td Ts=1.8 - Td=4.3 2023-10-24 18:19:00
1 2019-10-04 08:00:00 Ts debe ser mayor o igual a Td Ts=0.4 - Td=0.9 2023-10-24 18:19:00
1 2019-10-04 12:00:00 Ts debe ser mayor o igual a Td Ts=3.3 - Td=4.2 2023-10-24 18:19:00
1 2019-10-05 12:00:00 Ts debe ser mayor o igual a Td Ts=2.1 - Td=3.5 2023-10-24 18:19:00
1 2019-10-07 12:00:00 Ts debe ser mayor o igual a Td Ts=6.8 - Td=7.3 2023-10-24 18:19:00
1 2019-10-11 11:00:00 Ts debe ser mayor o igual a Td Ts=5.1 - Td=6.0 2023-10-24 18:19:00
1 2019-10-12 11:00:00 Ts debe ser mayor o igual a Td Ts=8.0 - Td=8.4 2023-10-24 18:19:00
1 2019-10-12 12:00:00 Ts debe ser mayor o igual a Td Ts=9.0 - Td=10.7 2023-10-24 18:19:00
1 2019-10-14 08:00:00 Ts debe ser mayor o igual a Td Ts=9.7 - Td=10.1 2023-10-24 18:19:00
1 2019-10-15 11:00:00 Ts debe ser mayor o igual a Td Ts=4.6 - Td=7.1 2023-10-24 18:19:00
1 2019-10-15 12:00:00 Ts debe ser mayor o igual a Td Ts=7.5 - Td=9.3 2023-10-24 18:19:00
1 2019-10-16 11:00:00 Ts debe ser mayor o igual a Td Ts=3.7 - Td=5.4 2023-10-24 18:19:00
1 2019-10-16 12:00:00 Ts debe ser mayor o igual a Td Ts=6.0 - Td=8.9 2023-10-24 18:19:00
1 2019-10-17 05:00:00 Ts debe ser mayor o igual a Td Ts=5.3 - Td=6.4 2023-10-24 18:19:00
1 2019-10-18 11:00:00 Ts debe ser mayor o igual a Td Ts=3.1 - Td=5.8 2023-10-24 18:19:00
1 2019-10-18 12:00:00 Ts debe ser mayor o igual a Td Ts=6.3 - Td=7.9 2023-10-24 18:19:00
1 2019-10-19 11:00:00 Ts debe ser mayor o igual a Td Ts=4.3 - Td=7.9 2023-10-24 18:19:00
1 2019-10-21 11:00:00 Ts debe ser mayor o igual a Td Ts=5.1 - Td=6.4 2023-10-24 18:19:00
1 2019-10-23 11:00:00 Ts debe ser mayor o igual a Td Ts=3.3 - Td=4.4 2023-10-24 18:19:00
1 2019-10-24 10:00:00 Ts debe ser mayor o igual a Td Ts=6.3 - Td=7.3 2023-10-24 18:19:00
1 2019-10-24 11:00:00 Ts debe ser mayor o igual a Td Ts=7.8 - Td=9.4 2023-10-24 18:19:00
1 2019-10-24 12:00:00 Ts debe ser mayor o igual a Td Ts=9.9 - Td=10.9 2023-10-24 18:19:00
1 2019-10-25 11:00:00 Ts debe ser mayor o igual a Td Ts=5.3 - Td=6.4 2023-10-24 18:19:00
1 2019-10-26 11:00:00 Ts debe ser mayor o igual a Td Ts=3.0 - Td=4.3 2023-10-24 18:19:00
1 2019-10-27 11:00:00 Ts debe ser mayor o igual a Td Ts=6.8 - Td=7.5 2023-10-24 18:19:00
1 2019-10-27 12:00:00 Ts debe ser mayor o igual a Td Ts=8.2 - Td=10.3 2023-10-24 18:19:00
1 2019-10-30 11:00:00 Ts debe ser mayor o igual a Td Ts=4.1 - Td=6.1 2023-10-24 18:20:00
1 2019-10-31 11:00:00 Ts debe ser mayor o igual a Td Ts=5.0 - Td=6.6 2023-10-24 18:20:00
1 2019-11-01 11:00:00 Ts debe ser mayor o igual a Td Ts=3.0 - Td=7.3 2023-10-24 18:20:00
1 2019-11-01 12:00:00 Ts debe ser mayor o igual a Td Ts=7.8 - Td=8.7 2023-10-24 18:20:00
1 2019-11-03 11:00:00 Ts debe ser mayor o igual a Td Ts=5.1 - Td=7.9 2023-10-24 18:20:00
1 2019-11-04 07:00:00 Ts debe ser mayor o igual a Td Ts=5.6 - Td=6.6 2023-10-24 18:20:00
1 2019-11-04 08:00:00 Ts debe ser mayor o igual a Td Ts=7.2 - Td=8.7 2023-10-24 18:20:00
1 2019-11-05 11:00:00 Ts debe ser mayor o igual a Td Ts=6.4 - Td=9.7 2023-10-24 18:20:00
1 2019-11-06 11:00:00 Ts debe ser mayor o igual a Td Ts=5.7 - Td=8.7 2023-10-24 18:20:00
1 2019-11-08 11:00:00 Ts debe ser mayor o igual a Td Ts=8.8 - Td=9.0 2023-10-24 18:20:00
1 2019-11-09 11:00:00 Ts debe ser mayor o igual a Td Ts=7.2 - Td=9.8 2023-10-24 18:20:00
1 2019-11-10 11:00:00 Ts debe ser mayor o igual a Td Ts=7.3 - Td=10.9 2023-10-24 18:20:00
1 2019-11-11 10:00:00 Ts debe ser mayor o igual a Td Ts=8.4 - Td=9.5 2023-10-24 18:20:00
1 2019-11-11 11:00:00 Ts debe ser mayor o igual a Td Ts=9.9 - Td=12.6 2023-10-24 18:20:00
1 2019-11-12 11:00:00 Ts debe ser mayor o igual a Td Ts=7.1 - Td=11.8 2023-10-24 18:20:00
1 2019-11-12 12:00:00 Ts debe ser mayor o igual a Td Ts=12.2 - Td=13.1 2023-10-24 18:20:00
1 2019-11-13 07:00:00 Ts debe ser mayor o igual a Td Ts=8.1 - Td=8.2 2023-10-24 18:20:00
1 2019-11-13 08:00:00 Ts debe ser mayor o igual a Td Ts=8.7 - Td=11.0 2023-10-24 18:20:00
1 2019-11-13 11:00:00 Ts debe ser mayor o igual a Td Ts=10.6 - Td=11.8 2023-10-24 18:20:00
1 2019-11-13 12:00:00 Ts debe ser mayor o igual a Td Ts=12.6 - Td=13.2 2023-10-24 18:20:00
1 2019-11-14 10:00:00 Ts debe ser mayor o igual a Td Ts=8.8 - Td=8.9 2023-10-24 18:20:00
1 2019-11-14 11:00:00 Ts debe ser mayor o igual a Td Ts=9.4 - Td=12.8 2023-10-24 18:20:00
1 2019-11-16 11:00:00 Ts debe ser mayor o igual a Td Ts=10.8 - Td=12.6 2023-10-24 18:20:00
1 2019-11-17 11:00:00 Ts debe ser mayor o igual a Td Ts=6.5 - Td=6.7 2023-10-24 18:20:00
1 2019-11-20 11:00:00 Ts debe ser mayor o igual a Td Ts=9.4 - Td=10.3 2023-10-24 18:20:00
1 2019-11-21 10:00:00 Ts debe ser mayor o igual a Td Ts=8.0 - Td=9.1 2023-10-24 18:20:00
1 2019-11-21 11:00:00 Ts debe ser mayor o igual a Td Ts=9.7 - Td=12.1 2023-10-24 18:20:00
1 2019-11-22 10:00:00 Ts debe ser mayor o igual a Td Ts=7.6 - Td=8.1 2023-10-24 18:20:00
1 2019-11-22 11:00:00 Ts debe ser mayor o igual a Td Ts=8.5 - Td=12.6 2023-10-24 18:20:00
1 2019-11-22 12:00:00 Ts debe ser mayor o igual a Td Ts=13.5 - Td=13.8 2023-10-24 18:20:00
1 2019-11-23 11:00:00 Ts debe ser mayor o igual a Td Ts=7.4 - Td=12.0 2023-10-24 18:20:00
1 2019-11-24 10:00:00 Ts debe ser mayor o igual a Td Ts=5.8 - Td=6.7 2023-10-24 18:20:00
1 2019-11-24 11:00:00 Ts debe ser mayor o igual a Td Ts=7.3 - Td=9.3 2023-10-24 18:20:00
1 2019-11-26 10:00:00 Ts debe ser mayor o igual a Td Ts=2.9 - Td=4.1 2023-10-24 18:20:00
1 2019-11-26 11:00:00 Ts debe ser mayor o igual a Td Ts=4.7 - Td=6.2 2023-10-24 18:20:00
1 2019-12-02 09:00:00 Ts debe ser mayor o igual a Td Ts=7.5 - Td=8.3 2023-10-24 18:20:00
1 2019-12-02 10:00:00 Ts debe ser mayor o igual a Td Ts=8.8 - Td=10.8 2023-10-24 18:20:00
1 2019-12-02 11:00:00 Ts debe ser mayor o igual a Td Ts=11.3 - Td=11.6 2023-10-24 18:20:00
1 2019-12-02 12:00:00 Ts debe ser mayor o igual a Td Ts=12.0 - Td=13.1 2023-10-24 18:20:00
1 2019-12-03 10:00:00 Ts debe ser mayor o igual a Td Ts=7.7 - Td=8.5 2023-10-24 18:20:00
1 2019-12-03 11:00:00 Ts debe ser mayor o igual a Td Ts=9.0 - Td=12.4 2023-10-24 18:20:00
1 2019-12-04 11:00:00 Ts debe ser mayor o igual a Td Ts=6.8 - Td=7.9 2023-10-24 18:20:00
1 2019-12-06 11:00:00 Ts debe ser mayor o igual a Td Ts=6.9 - Td=9.5 2023-10-24 18:20:00
1 2019-12-07 08:00:00 Ts debe ser mayor o igual a Td Ts=6.6 - Td=9.7 2023-10-24 18:20:00
1 2019-12-07 09:00:00 Ts debe ser mayor o igual a Td Ts=10.3 - Td=10.6 2023-10-24 18:20:00
1 2019-12-08 10:00:00 Ts debe ser mayor o igual a Td Ts=4.8 - Td=5.3 2023-10-24 18:20:00
1 2019-12-08 11:00:00 Ts debe ser mayor o igual a Td Ts=5.7 - Td=10.8 2023-10-24 18:20:00
1 2019-12-09 10:00:00 Ts debe ser mayor o igual a Td Ts=5.9 - Td=8.5 2023-10-24 18:20:00
1 2019-12-09 11:00:00 Ts debe ser mayor o igual a Td Ts=8.9 - Td=11.8 2023-10-24 18:20:00
1 2019-12-10 11:00:00 Ts debe ser mayor o igual a Td Ts=7.0 - Td=11.3 2023-10-24 18:20:00
1 2019-12-10 12:00:00 Ts debe ser mayor o igual a Td Ts=12.2 - Td=12.3 2023-10-24 18:20:00
1 2019-12-11 10:00:00 Ts debe ser mayor o igual a Td Ts=6.5 - Td=6.8 2023-10-24 18:20:00
1 2019-12-11 11:00:00 Ts debe ser mayor o igual a Td Ts=7.3 - Td=11.5 2023-10-24 18:20:00
1 2019-12-16 11:00:00 Ts debe ser mayor o igual a Td Ts=8.1 - Td=8.5 2023-10-24 18:20:00
Errores del Nivel 178
Informe generado el 23-02-2024 09:58
Requerimiento: RE6001